Time;durP1;ratioP1;P1;durP2;ratioP2;P2;SDS_P1;SDS_P2;PMS_P1;PMS_P2;Temp;Humidity;BMP_temperature;BMP_pressure;BME280_temperature;BME280_humidity;BME280_pressure;Samples;Min_cycle;Max_cycle;Signal;HPM_P1;HPM_P2
2022/01/20 00:02:25;;;;;;;6.27;5.77;;;;;;;2.29;96.41;101326.41;5052426;28;20792;-49
2022/01/20 00:05:07;;;;;;;7.70;6.27;;;;;;;2.23;96.42;101314.59;5052487;28;20423;-46
2022/01/20 00:07:45;;;;;;;6.90;6.17;;;;;;;2.22;95.98;101305.84;5052217;28;20448;-47
2022/01/20 00:26:51;;;;;;;22.83;8.93;;;;;;;2.12;92.66;101280.47;5051908;28;20564;-46
2022/01/20 00:29:27;;;;;;;12.23;6.67;;;;;;;2.12;91.93;101298.88;5052108;28;20411;-45
2022/01/20 00:32:09;;;;;;;14.20;7.00;;;;;;;2.13;90.27;101304.00;5051244;28;20996;-46
2022/01/20 00:37:20;;;;;;;16.10;6.70;;;;;;;2.17;91.75;101297.53;5051756;28;20451;-49
2022/01/20 00:39:48;;;;;;;8.03;6.07;;;;;;;2.08;88.92;101300.09;5051228;28;20474;-46
2022/01/20 00:42:16;;;;;;;19.30;7.80;;;;;;;2.05;89.66;101298.56;5051385;28;20974;-45
2022/01/20 00:44:44;;;;;;;8.00;7.20;;;;;;;2.03;89.95;101303.09;5045140;28;20440;-47
2022/01/20 00:47:14;;;;;;;14.33;6.73;;;;;;;1.97;90.61;101271.22;5050304;28;20447;-46
2022/01/20 00:49:43;;;;;;;17.33;6.67;;;;;;;1.95;91.44;101273.97;5051130;28;20443;-45
2022/01/20 00:52:11;;;;;;;18.00;7.33;;;;;;;1.90;92.08;101268.25;5051432;28;20432;-45
2022/01/20 00:54:39;;;;;;;18.57;7.37;;;;;;;1.87;90.59;101265.06;5051708;28;20435;-44
2022/01/20 00:57:07;;;;;;;17.73;8.10;;;;;;;1.85;88.70;101265.16;5051693;28;20455;-45
2022/01/20 00:59:35;;;;;;;19.83;7.70;;;;;;;1.84;87.70;101276.66;5051236;28;20842;-44
2022/01/20 01:02:06;;;;;;;13.90;6.57;;;;;;;1.85;87.11;101264.34;5051368;28;20432;-46
2022/01/20 01:04:36;;;;;;;14.97;8.00;;;;;;;1.89;85.47;101276.28;5051806;28;20439;-49
2022/01/20 01:09:51;;;;;;;9.07;8.23;;;;;;;1.92;79.52;101274.22;5076745;22;20479;-48
2022/01/20 01:12:28;;;;;;;17.43;7.10;;;;;;;1.94;78.15;101259.13;5047048;28;20950;-47
2022/01/20 01:14:56;;;;;;;9.87;6.20;;;;;;;2.04;71.16;101257.41;5055792;28;20424;-51
2022/01/20 01:20:18;;;;;;;10.83;7.53;;;;;;;2.07;72.11;101261.56;5054911;28;20467;-50
2022/01/20 01:22:46;;;;;;;10.63;7.10;;;;;;;2.03;72.06;101291.75;5055340;28;20423;-48
2022/01/20 01:25:14;;;;;;;9.47;7.03;;;;;;;1.98;70.09;101288.66;5055317;28;20435;-47
2022/01/20 01:27:44;;;;;;;9.80;6.40;;;;;;;1.92;70.43;101326.81;5055217;28;20431;-47
2022/01/20 01:30:40;;;;;;;12.30;8.70;;;;;;;1.87;72.07;101323.75;5054665;28;20467;-47
2022/01/20 01:33:08;;;;;;;11.90;7.53;;;;;;;1.81;73.01;101318.16;5055296;28;20454;-49
2022/01/20 01:35:40;;;;;;;14.10;7.10;;;;;;;1.77;72.21;101319.34;5055173;28;20802;-49
2022/01/20 01:38:35;;;;;;;6.83;6.13;;;;;;;1.74;73.11;101322.25;5055134;28;20429;-51
2022/01/20 01:41:07;;;;;;;12.83;7.40;;;;;;;1.74;74.80;101330.13;5054572;28;20469;-50
2022/01/20 01:43:36;;;;;;;6.23;5.73;;;;;;;1.72;73.34;101337.31;5043099;28;20794;-47
2022/01/20 01:46:05;;;;;;;6.70;5.90;;;;;;;1.68;73.66;101341.97;5033500;28;20436;-48
2022/01/20 01:48:33;;;;;;;12.40;7.00;;;;;;;1.64;76.16;101353.72;5055039;28;20515;-47
2022/01/20 01:51:02;;;;;;;10.73;7.07;;;;;;;1.53;78.11;101345.84;5054372;28;20941;-48
2022/01/20 01:53:30;;;;;;;16.53;6.93;;;;;;;1.42;79.35;101349.34;5054937;28;20427;-47
2022/01/20 01:55:57;;;;;;;7.77;5.77;;;;;;;1.34;78.38;101346.50;5054891;28;20427;-51
2022/01/20 01:58:25;;;;;;;11.43;7.07;;;;;;;1.28;79.75;101356.69;5054746;28;20427;-49
2022/01/20 02:00:53;;;;;;;6.77;6.27;;;;;;;1.16;79.75;101350.59;5053727;28;20833;-49
2022/01/20 02:03:20;;;;;;;6.80;6.30;;;;;;;1.08;81.49;101348.56;5054857;28;20442;-51
2022/01/20 02:06:03;;;;;;;10.60;6.20;;;;;;;0.95;81.24;101349.66;5045159;28;20456;-51
2022/01/20 02:08:39;;;;;;;6.80;6.13;;;;;;;0.89;82.97;101363.28;5024829;28;20432;-49
2022/01/20 02:19:33;;;;;;;6.23;5.67;;;;;;;0.82;87.88;101364.69;5034123;28;20984;-48
2022/01/20 02:22:02;;;;;;;5.00;4.70;;;;;;;0.66;88.03;101367.66;5034078;28;20443;-47
2022/01/20 02:24:31;;;;;;;9.27;5.77;;;;;;;0.57;92.37;101369.19;5034404;28;20539;-50
2022/01/20 02:26:59;;;;;;;5.00;4.70;;;;;;;0.46;93.21;101379.69;5034353;28;20984;-51
2022/01/20 02:29:28;;;;;;;5.67;5.13;;;;;;;0.46;94.38;101370.97;5034164;28;20444;-47
2022/01/20 02:31:58;;;;;;;6.47;4.30;;;;;;;0.39;93.70;101367.97;5033319;28;20463;-49
2022/01/20 02:34:29;;;;;;;8.33;5.57;;;;;;;0.36;95.09;101383.94;5034147;28;20910;-45
2022/01/20 02:37:00;;;;;;;4.83;4.30;;;;;;;0.33;96.37;101383.38;5034241;28;20494;-45
2022/01/20 02:39:57;;;;;;;5.10;4.70;;;;;;;0.27;96.57;101374.13;5034034;28;20476;-53
2022/01/20 02:45:07;;;;;;;3.50;3.37;;;;;;;0.14;95.39;101362.06;5043436;28;20440;-47
2022/01/20 02:47:34;;;;;;;5.97;4.80;;;;;;;0.14;95.83;101362.06;5053766;28;20924;-49
2022/01/20 02:50:02;;;;;;;6.37;4.80;;;;;;;0.13;95.84;101340.25;5053264;28;20562;-52
2022/01/20 02:52:30;;;;;;;7.90;4.97;;;;;;;0.17;96.13;101348.72;5053514;28;20863;-46
2022/01/20 02:54:59;;;;;;;7.07;5.40;;;;;;;0.16;96.13;101360.16;5053544;28;20427;-51
2022/01/20 02:57:26;;;;;;;6.53;5.37;;;;;;;0.09;95.44;101370.25;5053623;28;20435;-47
2022/01/20 02:59:55;;;;;;;13.17;5.70;;;;;;;0.07;95.45;101353.81;5053062;28;20818;-48
2022/01/20 03:02:22;;;;;;;10.40;7.20;;;;;;;0.06;96.20;101346.91;5053376;28;20431;-48
2022/01/20 03:04:51;;;;;;;7.20;5.13;;;;;;;0.13;97.21;101349.91;5053587;28;20950;-46
2022/01/20 03:07:19;;;;;;;16.83;5.63;;;;;;;0.16;96.26;101339.19;5053311;28;20954;-47
2022/01/20 03:09:46;;;;;;;13.07;5.80;;;;;;;0.25;96.80;101344.56;5052631;28;20825;-45
2022/01/20 03:12:15;;;;;;;11.23;5.83;;;;;;;0.33;95.08;101351.88;5053045;28;20427;-48
2022/01/20 03:14:43;;;;;;;8.50;5.33;;;;;;;0.39;94.02;101357.47;5053424;28;20436;-50
2022/01/20 03:17:11;;;;;;;9.30;5.87;;;;;;;0.44;92.60;101360.59;5053334;28;20438;-50
2022/01/20 03:19:38;;;;;;;7.00;6.07;;;;;;;0.48;92.69;101369.91;5052571;28;20451;-48
2022/01/20 03:22:06;;;;;;;23.43;6.80;;;;;;;0.54;91.65;101371.22;5052916;28;20433;-53
2022/01/20 03:24:33;;;;;;;10.40;6.07;;;;;;;0.56;91.86;101366.69;5053327;28;20962;-47
2022/01/20 03:27:02;;;;;;;12.50;6.57;;;;;;;0.57;88.92;101361.31;5053231;28;20462;-49
2022/01/20 03:29:31;;;;;;;12.60;5.97;;;;;;;0.62;88.50;101347.88;5052015;28;20452;-47
2022/01/20 03:31:59;;;;;;;19.50;6.83;;;;;;;0.67;87.81;101394.75;5052508;28;20958;-46
2022/01/20 03:34:26;;;;;;;12.17;7.07;;;;;;;0.71;87.85;101385.69;5052876;28;20431;-46
2022/01/20 03:36:54;;;;;;;14.37;7.07;;;;;;;0.77;81.71;101398.34;5052746;28;20436;-49
2022/01/20 03:39:22;;;;;;;18.10;7.37;;;;;;;0.86;81.86;101393.22;5052988;28;20448;-49
2022/01/20 03:41:49;;;;;;;9.53;7.07;;;;;;;0.90;82.37;101402.53;5051891;28;20479;-49
2022/01/20 03:44:17;;;;;;;19.47;8.20;;;;;;;0.93;78.77;101401.44;5047833;28;20438;-51
2022/01/20 03:46:46;;;;;;;12.17;8.53;;;;;;;1.00;76.98;101387.72;5047468;28;20799;-47
2022/01/20 03:49:26;;;;;;;24.80;8.97;;;;;;;1.03;77.38;101400.63;5052508;28;20458;-46
2022/01/20 03:51:55;;;;;;;19.33;9.30;;;;;;;1.07;75.21;101401.22;5051815;28;20463;-53
2022/01/20 03:54:25;;;;;;;8.60;7.73;;;;;;;1.07;75.46;101386.31;5052855;28;20817;-45
2022/01/20 03:56:53;;;;;;;13.07;10.33;;;;;;;1.09;77.87;101396.69;5052562;28;20446;-47
2022/01/20 03:59:21;;;;;;;12.67;9.53;;;;;;;1.11;73.25;101392.97;5052396;28;20458;-50
2022/01/20 04:01:50;;;;;;;10.17;9.20;;;;;;;1.16;75.50;101404.94;5051548;28;20482;-50
2022/01/20 04:04:18;;;;;;;24.87;9.50;;;;;;;1.21;74.19;101400.97;5052598;28;20436;-46
2022/01/20 04:06:45;;;;;;;24.77;9.57;;;;;;;1.23;75.71;101396.44;5052323;28;20435;-46
2022/01/20 04:09:13;;;;;;;23.43;10.07;;;;;;;1.29;75.42;101374.09;5052144;28;20554;-47
2022/01/20 04:11:41;;;;;;;13.33;9.03;;;;;;;1.28;73.08;101401.34;5051699;28;20889;-49
2022/01/20 04:14:08;;;;;;;14.97;9.00;;;;;;;1.29;71.08;101410.88;5052128;28;20435;-49
2022/01/20 04:16:51;;;;;;;9.30;8.60;;;;;;;1.29;72.52;101418.75;5052013;28;20442;-47
2022/01/20 04:19:20;;;;;;;21.23;8.70;;;;;;;1.28;72.45;101430.25;5052141;28;20457;-47
2022/01/20 04:21:48;;;;;;;13.50;7.97;;;;;;;1.30;70.40;101438.81;5051260;28;20475;-48
2022/01/20 04:24:16;;;;;;;11.33;8.07;;;;;;;1.31;72.25;101449.22;5052104;28;20522;-47
2022/01/20 04:26:46;;;;;;;15.10;9.17;;;;;;;1.31;70.89;101454.50;5051841;28;20439;-48
2022/01/20 04:29:16;;;;;;;19.57;8.33;;;;;;;1.42;69.30;101437.88;5052058;28;20457;-47
2022/01/20 04:31:45;;;;;;;13.97;8.17;;;;;;;1.41;68.33;101452.78;5051225;28;20877;-48
2022/01/20 04:34:13;;;;;;;24.87;8.90;;;;;;;1.38;67.03;101468.81;5051979;28;20515;-47
2022/01/20 04:36:45;;;;;;;12.20;7.90;;;;;;;1.37;67.16;101446.13;5051900;28;20438;-48
2022/01/20 04:39:17;;;;;;;9.20;7.00;;;;;;;1.36;67.66;101423.44;5051569;28;20447;-51
2022/01/20 04:41:45;;;;;;;11.20;8.83;;;;;;;1.34;67.17;101454.25;5051032;28;20987;-47
2022/01/20 04:44:19;;;;;;;11.93;8.20;;;;;;;1.35;67.82;101457.69;5047339;28;20439;-51
2022/01/20 04:46:58;;;;;;;15.23;9.43;;;;;;;1.33;66.85;101457.81;5046798;28;20808;-45
2022/01/20 04:57:44;;;;;;;16.03;9.70;;;;;;;1.29;68.94;101482.66;5051609;28;20789;-47
2022/01/20 05:00:12;;;;;;;13.60;9.30;;;;;;;1.26;68.19;101468.91;5050970;28;20462;-46
2022/01/20 05:02:40;;;;;;;13.73;9.50;;;;;;;1.26;72.01;101474.16;5051395;28;20475;-48
2022/01/20 05:05:09;;;;;;;17.50;10.73;;;;;;;1.26;71.83;101471.53;5051574;28;20431;-46
2022/01/20 05:07:38;;;;;;;10.40;9.23;;;;;;;1.25;72.44;101469.88;5051512;28;20427;-51
2022/01/20 05:10:08;;;;;;;13.57;8.27;;;;;;;1.29;70.16;101485.28;5050846;28;20830;-44
2022/01/20 05:12:59;;;;;;;11.90;8.33;;;;;;;1.35;70.54;101490.06;5051265;28;20424;-48
2022/01/20 05:15:25;;;;;;;12.53;7.67;;;;;;;1.38;71.49;101510.84;5051448;28;20443;-46
2022/01/20 05:17:55;;;;;;;15.73;8.57;;;;;;;1.35;70.76;101492.69;5051488;28;20833;-49
2022/01/20 05:20:23;;;;;;;20.77;8.80;;;;;;;1.38;70.48;101504.75;5050638;28;20925;-50
2022/01/20 05:22:52;;;;;;;13.90;8.97;;;;;;;1.37;69.96;101517.06;5051192;28;20841;-48
2022/01/20 05:25:19;;;;;;;17.77;8.77;;;;;;;1.41;68.70;101523.75;5051509;28;20435;-49
2022/01/20 05:27:47;;;;;;;15.37;8.30;;;;;;;1.39;69.12;101507.28;5051411;28;20908;-49
2022/01/20 05:30:15;;;;;;;11.53;7.77;;;;;;;1.41;70.65;101529.00;5050793;28;20467;-50
2022/01/20 05:32:42;;;;;;;14.00;7.80;;;;;;;1.41;69.05;101531.63;5051254;28;20433;-48
2022/01/20 05:35:10;;;;;;;17.03;8.70;;;;;;;1.40;69.19;101524.72;5051331;28;20428;-47
2022/01/20 05:37:38;;;;;;;16.83;8.63;;;;;;;1.37;70.80;101535.47;5051211;28;20994;-47
2022/01/20 05:40:08;;;;;;;26.50;8.17;;;;;;;1.37;70.03;101538.09;5050751;28;20464;-49
2022/01/20 05:42:37;;;;;;;9.07;7.97;;;;;;;1.36;70.15;101541.69;5051011;28;20467;-46
2022/01/20 05:45:06;;;;;;;13.73;8.73;;;;;;;1.36;70.61;101546.94;5040725;28;20441;-45
2022/01/20 05:47:37;;;;;;;12.30;8.67;;;;;;;1.41;71.28;101544.78;5051130;28;20434;-48
2022/01/20 05:50:06;;;;;;;16.03;8.57;;;;;;;1.41;68.89;101557.06;5050382;28;20470;-51
2022/01/20 05:52:36;;;;;;;8.60;7.70;;;;;;;1.39;72.09;101575.59;5053008;28;20427;-49
2022/01/20 05:55:03;;;;;;;11.77;8.07;;;;;;;1.38;73.26;101575.69;5054905;28;20435;-48
2022/01/20 05:57:32;;;;;;;14.43;9.60;;;;;;;1.35;72.27;101575.94;5054906;28;20431;-46
2022/01/20 06:00:00;;;;;;;13.67;8.57;;;;;;;1.34;73.39;101567.25;5054150;28;21026;-47
2022/01/20 06:02:34;;;;;;;21.63;10.50;;;;;;;1.31;74.58;101567.47;5054270;28;20819;-45
2022/01/20 06:05:04;;;;;;;15.43;8.57;;;;;;;1.30;73.21;101567.56;5054534;28;20430;-45
2022/01/20 06:07:32;;;;;;;14.60;8.73;;;;;;;1.30;74.72;101580.72;5054775;28;20435;-46
2022/01/20 06:09:59;;;;;;;12.83;8.13;;;;;;;1.33;72.95;101572.59;5053938;28;20460;-48
2022/01/20 06:12:27;;;;;;;12.43;9.43;;;;;;;1.34;73.50;101583.00;5053231;28;20420;-45
2022/01/20 06:14:56;;;;;;;10.37;8.90;;;;;;;1.36;72.55;101585.50;5054045;28;20438;-46
2022/01/20 06:17:27;;;;;;;10.97;7.23;;;;;;;1.40;71.61;101592.22;5054500;28;20469;-46
2022/01/20 06:19:55;;;;;;;16.10;7.87;;;;;;;1.43;73.32;101591.97;5053881;28;20463;-46
2022/01/20 06:22:23;;;;;;;13.30;8.27;;;;;;;1.42;73.19;101598.19;5022507;28;20479;-50
2022/01/20 06:24:50;;;;;;;14.60;8.00;;;;;;;1.39;72.80;101601.88;5017038;28;20433;-50
2022/01/20 06:27:18;;;;;;;14.93;7.70;;;;;;;1.36;71.55;101607.38;5018616;28;20465;-49
2022/01/20 06:29:46;;;;;;;9.00;8.20;;;;;;;1.34;73.40;101609.28;5017885;28;20463;-45
2022/01/20 06:32:15;;;;;;;17.50;8.60;;;;;;;1.33;74.98;101618.13;5013821;28;20429;-45
2022/01/20 06:34:42;;;;;;;12.80;8.80;;;;;;;1.36;73.47;101609.16;5011358;28;20437;-48
2022/01/20 06:37:10;;;;;;;10.03;7.20;;;;;;;1.36;74.74;101617.03;5015581;28;20545;-46
2022/01/20 06:39:37;;;;;;;10.40;8.43;;;;;;;1.35;76.19;101610.09;5014969;28;20966;-46
2022/01/20 06:42:06;;;;;;;16.77;8.03;;;;;;;1.31;75.63;101600.78;5019627;28;20919;-50
2022/01/20 06:44:34;;;;;;;9.27;8.33;;;;;;;1.29;75.13;101614.03;5019965;28;20438;-48
2022/01/20 06:47:02;;;;;;;13.53;8.20;;;;;;;1.30;75.61;101610.47;5019093;28;20441;-45
2022/01/20 06:49:32;;;;;;;16.70;8.33;;;;;;;1.33;76.16;101623.38;5025704;28;20448;-47
2022/01/20 06:51:59;;;;;;;20.00;9.50;;;;;;;1.32;77.78;101612.97;5043392;28;20791;-46
2022/01/20 06:54:27;;;;;;;10.93;8.87;;;;;;;1.31;75.95;101612.16;5052388;28;20427;-48
2022/01/20 06:56:55;;;;;;;12.03;7.40;;;;;;;1.33;75.76;101614.66;5052460;28;20535;-46
2022/01/20 06:59:23;;;;;;;20.17;9.03;;;;;;;1.32;78.25;101613.81;5052195;28;20447;-49
2022/01/20 07:01:50;;;;;;;16.97;9.00;;;;;;;1.28;79.44;101638.66;5034598;28;20475;-47
2022/01/20 07:04:18;;;;;;;18.60;8.80;;;;;;;1.26;79.09;101622.16;5019837;28;20470;-46
2022/01/20 07:06:48;;;;;;;12.23;10.50;;;;;;;1.26;80.48;101643.16;5018416;28;20448;-45
2022/01/20 07:09:15;;;;;;;13.93;10.53;;;;;;;1.27;79.33;101650.09;5040940;28;20818;-47
2022/01/20 07:11:43;;;;;;;15.43;8.57;;;;;;;1.26;78.36;101655.47;5050739;28;20466;-52
2022/01/20 07:14:11;;;;;;;8.90;8.00;;;;;;;1.27;77.97;101660.63;5036271;28;20827;-49
2022/01/20 07:16:38;;;;;;;13.70;8.90;;;;;;;1.26;78.57;101652.84;5051671;28;20995;-45
2022/01/20 07:19:06;;;;;;;17.77;8.67;;;;;;;1.25;79.62;101657.28;5051113;28;20451;-46
2022/01/20 07:21:34;;;;;;;9.63;8.80;;;;;;;1.24;78.12;101650.34;5049384;28;20463;-48
2022/01/20 07:24:03;;;;;;;12.60;8.10;;;;;;;1.22;78.36;101660.13;5050994;28;20471;-47
2022/01/20 07:26:31;;;;;;;14.87;8.70;;;;;;;1.24;80.04;101660.00;5051636;28;20756;-47
2022/01/20 07:28:58;;;;;;;31.83;10.20;;;;;;;1.26;79.85;101669.44;5051130;28;20451;-49
2022/01/20 07:31:26;;;;;;;17.13;8.37;;;;;;;1.25;80.21;101672.19;5050068;28;20463;-46
2022/01/20 07:33:54;;;;;;;15.53;8.37;;;;;;;1.24;78.00;101676.59;5050960;28;20526;-50
2022/01/20 07:36:21;;;;;;;12.53;9.17;;;;;;;1.25;77.91;101680.94;5051061;28;20439;-46
2022/01/20 07:38:49;;;;;;;11.27;8.63;;;;;;;1.31;78.52;101685.72;5050920;28;20432;-48
2022/01/20 07:41:18;;;;;;;11.93;9.37;;;;;;;1.32;77.36;101699.69;5031633;28;20484;-46
2022/01/20 07:43:46;;;;;;;17.33;10.50;;;;;;;1.39;77.75;101698.28;5048351;28;20880;-45
2022/01/20 07:46:14;;;;;;;14.97;8.03;;;;;;;1.42;76.34;101701.53;5042697;28;20436;-47
2022/01/20 07:48:41;;;;;;;14.13;7.80;;;;;;;1.42;75.13;101716.44;5050519;28;20435;-46
2022/01/20 07:51:09;;;;;;;12.30;7.03;;;;;;;1.48;73.95;101700.22;5049560;28;20529;-46
2022/01/20 07:53:37;;;;;;;11.67;7.93;;;;;;;1.48;74.00;101706.31;5050044;28;20530;-46
2022/01/20 07:56:06;;;;;;;7.80;6.57;;;;;;;1.49;73.97;101721.13;5050791;28;20436;-47
2022/01/20 07:58:36;;;;;;;22.33;7.73;;;;;;;1.49;74.50;101707.97;5050537;28;20428;-46
2022/01/20 08:01:05;;;;;;;9.37;7.07;;;;;;;1.52;73.55;101723.53;5049301;28;20461;-46
2022/01/20 08:03:34;;;;;;;17.40;6.57;;;;;;;1.51;72.88;101713.97;5036916;28;20560;-45
2022/01/20 08:06:01;;;;;;;8.00;7.20;;;;;;;1.49;74.90;101702.72;5030723;28;20432;-49
2022/01/20 08:08:29;;;;;;;7.77;6.97;;;;;;;1.49;74.91;101721.13;5031047;28;20452;-47
2022/01/20 08:10:56;;;;;;;12.47;7.03;;;;;;;1.50;74.26;101729.84;5049609;28;20464;-47
2022/01/20 08:13:25;;;;;;;10.87;7.13;;;;;;;1.48;74.60;101718.63;5041404;28;20439;-47
2022/01/20 08:15:55;;;;;;;15.30;8.13;;;;;;;1.48;75.08;101726.50;5029939;28;20440;-46
2022/01/20 08:18:22;;;;;;;8.17;7.70;;;;;;;1.44;76.75;101733.78;5030825;28;20417;-45
2022/01/20 08:20:50;;;;;;;9.87;7.20;;;;;;;1.46;76.71;101725.78;5048977;28;20485;-52
2022/01/20 08:23:17;;;;;;;12.53;7.93;;;;;;;1.43;77.57;101718.13;5050059;28;20473;-47
2022/01/20 08:25:45;;;;;;;20.10;8.10;;;;;;;1.45;78.24;101724.09;5050118;28;20435;-47
2022/01/20 08:28:13;;;;;;;10.90;7.60;;;;;;;1.45;79.76;101724.94;5050051;28;20839;-48
2022/01/20 08:30:42;;;;;;;9.33;7.37;;;;;;;1.41;79.87;101710.34;5049179;28;20467;-45
2022/01/20 08:33:11;;;;;;;9.10;8.20;;;;;;;1.43;78.52;101721.59;5050022;28;20499;-45
2022/01/20 08:35:39;;;;;;;9.00;8.10;;;;;;;1.46;80.49;101729.25;5050316;28;20435;-44
2022/01/20 08:38:08;;;;;;;8.23;7.60;;;;;;;1.46;79.27;101731.03;5050892;28;20416;-48
2022/01/20 08:40:36;;;;;;;9.10;8.20;;;;;;;1.49;78.43;101734.25;5049194;28;20467;-45
2022/01/20 08:43:06;;;;;;;11.33;8.77;;;;;;;1.57;78.80;101742.44;5039194;28;20834;-46
2022/01/20 08:45:35;;;;;;;11.60;8.40;;;;;;;1.62;78.14;101742.06;5042287;28;20793;-46
2022/01/20 08:48:04;;;;;;;13.73;7.00;;;;;;;1.75;77.91;101740.22;5050419;28;20431;-44
2022/01/20 08:50:34;;;;;;;18.87;8.10;;;;;;;1.83;75.89;101744.88;5038191;28;20491;-46
2022/01/20 08:53:02;;;;;;;15.73;8.00;;;;;;;1.88;75.08;101748.84;5009654;28;20437;-46
2022/01/20 08:55:29;;;;;;;12.63;8.00;;;;;;;1.94;76.33;101755.44;5014439;28;20449;-43
2022/01/20 08:57:59;;;;;;;7.93;7.23;;;;;;;1.91;74.29;101748.59;5017935;28;20459;-49
2022/01/20 09:00:29;;;;;;;9.73;6.87;;;;;;;1.90;76.17;101746.94;5017391;28;20472;-49
2022/01/20 09:02:58;;;;;;;16.83;7.70;;;;;;;1.90;75.59;101746.09;5018162;28;20481;-47
2022/01/20 09:05:26;;;;;;;12.10;8.00;;;;;;;1.88;74.62;101748.03;5018266;28;20515;-49
2022/01/20 09:07:55;;;;;;;13.83;7.90;;;;;;;1.81;75.38;101738.91;5019932;28;20433;-47
2022/01/20 09:10:23;;;;;;;9.13;7.40;;;;;;;1.80;77.20;101758.25;5017911;28;20471;-50
2022/01/20 09:15:54;;;;;;;10.37;7.53;;;;;;;1.66;77.67;101743.53;4919783;29;20445;-51
2022/01/20 09:18:24;;;;;;;8.87;7.80;;;;;;;1.62;78.34;101742.06;4918442;29;20806;-48
2022/01/20 09:20:51;;;;;;;18.23;8.17;;;;;;;1.64;79.94;101748.09;4963527;28;20526;-49
2022/01/20 09:23:20;;;;;;;18.00;8.03;;;;;;;1.57;79.26;101742.44;5017778;28;20472;-48
2022/01/20 09:25:49;;;;;;;12.57;7.53;;;;;;;1.64;81.50;101759.41;5019400;28;20977;-47
2022/01/20 09:28:18;;;;;;;12.90;8.87;;;;;;;1.65;80.27;101750.59;5023101;28;20463;-50
2022/01/20 09:30:46;;;;;;;12.17;9.30;;;;;;;1.66;80.38;101757.53;5020212;28;21012;-46
2022/01/20 09:33:17;;;;;;;11.10;8.93;;;;;;;1.63;81.49;101763.00;5022662;28;20436;-47
2022/01/20 09:35:45;;;;;;;8.83;7.90;;;;;;;1.72;83.25;101758.00;5021589;28;20470;-47
2022/01/20 09:38:14;;;;;;;15.63;8.40;;;;;;;1.73;83.00;101764.97;5022740;28;20447;-45
2022/01/20 09:40:43;;;;;;;12.40;7.90;;;;;;;1.73;82.32;101771.06;5019907;28;20476;-48
2022/01/20 09:43:14;;;;;;;11.00;7.97;;;;;;;1.81;82.46;101766.06;5020833;28;20432;-45
2022/01/20 09:45:42;;;;;;;8.33;7.50;;;;;;;1.85;81.53;101771.94;5023315;28;20444;-47
2022/01/20 09:48:11;;;;;;;10.37;9.43;;;;;;;1.88;80.31;101779.59;5020890;28;20444;-46
2022/01/20 09:50:39;;;;;;;11.13;8.23;;;;;;;1.91;80.38;101759.13;5021130;28;20637;-47
2022/01/20 09:53:07;;;;;;;12.40;7.73;;;;;;;1.91;78.06;101764.38;5021944;28;20473;-46
2022/01/20 09:55:35;;;;;;;14.20;8.77;;;;;;;2.02;77.29;101777.59;5021871;28;20440;-51
2022/01/20 09:58:05;;;;;;;9.23;8.33;;;;;;;2.04;72.29;101769.56;5020894;28;20506;-45
2022/01/20 10:00:34;;;;;;;15.03;8.00;;;;;;;2.15;74.66;101780.13;5020969;28;20480;-48
2022/01/20 10:03:06;;;;;;;10.60;7.40;;;;;;;2.21;75.57;101774.41;5020754;28;20436;-48
2022/01/20 10:05:36;;;;;;;12.63;7.93;;;;;;;2.25;71.80;101765.28;5022201;28;20437;-50
2022/01/20 10:08:08;;;;;;;15.50;7.90;;;;;;;2.28;73.88;101770.31;5022680;28;20436;-49
2022/01/20 10:10:48;;;;;;;8.80;7.87;;;;;;;2.35;71.51;101763.63;5021444;28;20460;-46
2022/01/20 10:13:19;;;;;;;14.97;10.33;;;;;;;2.39;74.03;101765.06;5021872;28;20443;-46
2022/01/20 10:16:02;;;;;;;11.70;7.90;;;;;;;2.42;69.57;101749.03;5021853;28;20444;-49
2022/01/20 10:18:30;;;;;;;10.50;6.47;;;;;;;2.49;69.72;101773.94;5022152;28;20852;-45
2022/01/20 10:21:01;;;;;;;12.87;6.07;;;;;;;2.48;70.45;101750.38;5019808;28;20472;-48
2022/01/20 10:23:35;;;;;;;15.63;7.17;;;;;;;2.42;70.24;101751.66;5020154;28;20430;-47
2022/01/20 10:26:08;;;;;;;8.10;6.43;;;;;;;2.50;70.49;101762.44;5021088;28;20445;-45
2022/01/20 10:28:48;;;;;;;10.43;6.60;;;;;;;2.52;70.03;101757.88;5020751;28;20460;-45
2022/01/20 10:31:17;;;;;;;9.90;6.83;;;;;;;2.57;69.53;101775.97;5018146;28;20841;-48
2022/01/20 10:33:45;;;;;;;11.60;7.80;;;;;;;2.58;70.64;101777.63;5020640;28;20466;-46
2022/01/20 10:36:14;;;;;;;8.73;7.20;;;;;;;2.70;68.87;101787.22;5022206;28;20448;-45
2022/01/20 10:38:52;;;;;;;15.20;7.47;;;;;;;2.76;68.16;101784.09;5021487;28;20444;-49
2022/01/20 10:41:28;;;;;;;8.50;6.23;;;;;;;2.72;65.54;101782.66;5021494;28;20467;-48
2022/01/20 10:44:06;;;;;;;9.47;6.17;;;;;;;2.71;66.92;101781.84;5019495;28;20482;-51
2022/01/20 10:46:52;;;;;;;10.53;6.30;;;;;;;2.77;66.63;101784.00;5022094;28;20441;-46
2022/01/20 10:49:23;;;;;;;12.70;7.87;;;;;;;2.76;66.88;101781.47;5023379;28;20470;-46
2022/01/20 10:52:03;;;;;;;7.83;7.03;;;;;;;2.82;66.70;101772.22;5022793;28;20461;-46
2022/01/20 10:54:39;;;;;;;8.43;6.53;;;;;;;2.84;65.27;101779.03;5021528;28;20430;-46
2022/01/20 10:57:08;;;;;;;8.43;6.40;;;;;;;2.89;64.72;101792.72;5021675;28;20955;-44
2022/01/20 10:59:49;;;;;;;8.13;7.27;;;;;;;2.95;62.93;101779.06;5020445;28;20467;-45
2022/01/20 11:02:20;;;;;;;12.30;6.33;;;;;;;3.01;63.56;101777.72;5020506;28;20436;-47
2022/01/20 11:04:48;;;;;;;7.57;6.93;;;;;;;2.88;62.73;101753.31;5020811;28;20480;-46
2022/01/20 11:07:16;;;;;;;20.37;6.60;;;;;;;3.13;62.82;101759.13;5019694;28;20949;-44
2022/01/20 11:09:46;;;;;;;8.70;6.07;;;;;;;3.08;60.20;101756.00;5018583;28;20469;-47
2022/01/20 11:12:16;;;;;;;5.70;5.20;;;;;;;2.95;58.43;101754.50;5020061;28;20978;-45
2022/01/20 11:14:47;;;;;;;6.20;5.70;;;;;;;2.91;58.19;101776.78;5021276;28;20432;-48
2022/01/20 11:17:19;;;;;;;10.20;7.00;;;;;;;2.95;59.52;101759.78;5020110;28;20935;-46
2022/01/20 11:19:47;;;;;;;12.30;7.20;;;;;;;3.02;60.68;101755.66;5019647;28;20448;-46
2022/01/20 11:22:15;;;;;;;11.70;7.03;;;;;;;3.03;58.85;101758.19;5019855;28;20429;-48
2022/01/20 11:24:43;;;;;;;8.30;5.93;;;;;;;3.14;58.41;101752.88;5019887;28;20479;-48
2022/01/20 11:27:14;;;;;;;5.70;5.20;;;;;;;3.10;57.43;101769.09;5019831;28;20440;-47
2022/01/20 11:29:46;;;;;;;8.30;6.50;;;;;;;3.11;60.15;101765.47;5020047;28;20460;-47
2022/01/20 11:32:19;;;;;;;7.00;6.40;;;;;;;3.04;56.81;101765.16;5019462;28;20439;-49
2022/01/20 11:34:58;;;;;;;9.53;5.50;;;;;;;3.06;54.77;101765.00;5020812;28;20481;-46
2022/01/20 11:37:28;;;;;;;6.20;5.60;;;;;;;3.06;55.04;101775.53;5021067;28;20541;-46
2022/01/20 11:40:10;;;;;;;9.77;5.77;;;;;;;3.12;56.38;101761.88;5020216;28;20513;-46
2022/01/20 11:42:38;;;;;;;10.73;5.80;;;;;;;3.11;53.22;101782.13;5020025;28;20472;-50
2022/01/20 11:45:26;;;;;;;6.00;5.43;;;;;;;3.00;54.37;101758.44;5023520;28;20842;-45
2022/01/20 11:47:54;;;;;;;5.77;5.37;;;;;;;2.91;51.32;101776.78;5020747;28;20432;-51
2022/01/20 11:50:22;;;;;;;5.87;5.30;;;;;;;2.84;54.74;101797.50;5018078;28;20473;-48
2022/01/20 11:52:50;;;;;;;5.73;5.37;;;;;;;2.74;52.26;101752.63;5020222;28;20436;-46
2022/01/20 11:55:29;;;;;;;6.60;5.67;;;;;;;2.73;52.41;101779.06;5020072;28;20540;-46
2022/01/20 11:57:56;;;;;;;5.70;5.30;;;;;;;2.70;51.33;101764.34;5019164;28;20811;-46
2022/01/20 12:00:29;;;;;;;5.63;5.13;;;;;;;2.79;51.24;101770.69;5019637;28;20551;-45
2022/01/20 12:02:56;;;;;;;8.70;6.30;;;;;;;2.86;53.04;101782.41;5018646;28;20447;-47
2022/01/20 12:05:28;;;;;;;7.37;5.30;;;;;;;2.94;51.31;101773.88;5019890;28;20560;-45
2022/01/20 12:08:05;;;;;;;6.37;5.90;;;;;;;2.92;52.07;101787.19;5019749;28;21142;-47
2022/01/20 12:10:34;;;;;;;6.17;5.70;;;;;;;2.92;52.43;101796.91;5017497;28;20471;-44
2022/01/20 12:13:10;;;;;;;5.30;5.00;;;;;;;2.80;51.03;101822.41;5018929;28;20445;-44
2022/01/20 12:15:51;;;;;;;5.33;4.80;;;;;;;2.76;52.22;101828.88;5018909;28;20987;-47
2022/01/20 12:18:18;;;;;;;8.77;5.80;;;;;;;2.74;52.09;101810.56;5019281;28;20432;-44
2022/01/20 12:20:46;;;;;;;5.30;5.00;;;;;;;2.79;52.46;101815.47;5018589;28;20472;-45
2022/01/20 12:23:14;;;;;;;6.60;5.13;;;;;;;2.81;50.81;101805.63;5018274;28;20850;-48
2022/01/20 12:25:42;;;;;;;8.27;5.80;;;;;;;2.83;51.22;101821.34;5009703;28;20480;-44
2022/01/20 12:28:12;;;;;;;6.20;5.00;;;;;;;2.93;51.01;101819.66;5010543;28;20429;-45